| Back to River Map | <<< Previous Forecast Point | | | Next Forecast Point >>> | Printer Version | Graph Version |  |
|
SACRAMENTO RIVER - VERONA (VONC1)
| Latitude: 38.78º N | Longitude: 121.60º W | Elevation: 43 Feet | | Forecast Type: Official Location |
| Location: Sutter County in California | Bulletin Group: Lower Sacramento | River Group: Lower Sacramento |
| Issuance Time: | May 02 2026 at 8:10 AM PDT | Next Issuance: | May 03 2026 at 9:00 AM PDT
| |
| Action/Monitor: N/A | Minor Flood: 41.3 Feet | Moderate Flood: 45.0 Feet | Major Flood: 46.0 Feet |
# Tabular Observed and Forecast Hydrograph Information
#
# Location: Sacramento River - Verona (VONC1)
#
# File Generation Time: 05/02/2026 at 08:10 AM PDT
# Data Interval: 1 Hour
#
# Most Recent Date & Time of Maximum Observed: 04/27/2026 at 09:00 AM PDT
# Maximum Observed Stage: 17.98 Feet
# Maximum Observed Flow: 20608 cfs
#
# Earliest Date & Time of Maximum Forecast: 05/02/2026 at 09:00 AM PDT
# Maximum Forecast Stage: 14.78 Feet
# Maximum Forecast Flow: 13989 cfs
#
# OBSERVED
#
# Date & Time (Local) Stage (Feet) Flow (cfs) Trend Observed Status
# ---------------------------------------------------------------------------------
04/27/2026 08 AM PDT 17.98 20608 Normal
04/27/2026 09 AM PDT 17.98 20608 0 Normal
04/27/2026 10 AM PDT 17.96 20564 - Normal
04/27/2026 11 AM PDT 17.96 20564 0 Normal
04/27/2026 12 PM PDT 17.92 20477 - Normal
04/27/2026 01 PM PDT 17.91 20455 - Normal
04/27/2026 02 PM PDT 17.88 20390 - Normal
04/27/2026 03 PM PDT 17.85 20324 - Normal
04/27/2026 04 PM PDT 17.80 20216 - Normal
04/27/2026 05 PM PDT 17.77 20151 - Normal
04/27/2026 06 PM PDT 17.73 20064 - Normal
04/27/2026 07 PM PDT 17.68 19956 - Normal
04/27/2026 08 PM PDT 17.67 19934 - Normal
04/27/2026 09 PM PDT 17.64 19869 - Normal
04/27/2026 10 PM PDT 17.60 19783 - Normal
04/27/2026 11 PM PDT 17.58 19740 - Normal
04/28/2026 12 AM PDT 17.56 19697 - Normal
04/28/2026 01 AM PDT 17.52 19611 - Normal
04/28/2026 02 AM PDT 17.47 19503 - Normal
04/28/2026 03 AM PDT 17.44 19439 - Normal
04/28/2026 04 AM PDT 17.41 19374 - Normal
04/28/2026 05 AM PDT 17.37 19289 - Normal
04/28/2026 06 AM PDT 17.33 19203 - Normal
04/28/2026 07 AM PDT 17.29 19118 - Normal
04/28/2026 08 AM PDT 17.25 19032 - Normal
04/28/2026 09 AM PDT 17.22 18968 - Normal
04/28/2026 10 AM PDT 17.21 18947 - Normal
04/28/2026 11 AM PDT 17.17 18862 - Normal
04/28/2026 12 PM PDT 17.16 18841 - Normal
04/28/2026 01 PM PDT 17.10 18713 - Normal
04/28/2026 02 PM PDT 17.05 18607 - Normal
04/28/2026 03 PM PDT 17.00 18501 - Normal
04/28/2026 04 PM PDT 16.92 18332 - Normal
04/28/2026 05 PM PDT 16.86 18206 - Normal
04/28/2026 06 PM PDT 16.80 18080 - Normal
04/28/2026 07 PM PDT 16.74 17954 - Normal
04/28/2026 08 PM PDT 16.69 17849 - Normal
04/28/2026 09 PM PDT 16.65 17765 - Normal
04/28/2026 10 PM PDT 16.61 17682 - Normal
04/28/2026 11 PM PDT 16.56 17578 - Normal
04/29/2026 12 AM PDT 16.52 17494 - Normal
04/29/2026 01 AM PDT 16.46 17370 - Normal
04/29/2026 02 AM PDT 16.44 17328 - Normal
04/29/2026 03 AM PDT 16.41 17266 - Normal
04/29/2026 04 AM PDT 16.37 17183 - Normal
04/29/2026 05 AM PDT 16.35 17142 - Normal
04/29/2026 06 AM PDT 16.32 17080 - Normal
04/29/2026 07 AM PDT 16.32 17080 0 Normal
04/29/2026 08 AM PDT 16.30 17039 - Normal
04/29/2026 09 AM PDT 16.30 17039 0 Normal
04/29/2026 10 AM PDT 16.31 17059 + Normal
04/29/2026 11 AM PDT 16.30 17039 - Normal
04/29/2026 12 PM PDT 16.32 17080 + Normal
04/29/2026 01 PM PDT 16.31 17059 - Normal
04/29/2026 02 PM PDT 16.30 17039 - Normal
04/29/2026 03 PM PDT 16.29 17018 - Normal
04/29/2026 04 PM PDT 16.25 16935 - Normal
04/29/2026 05 PM PDT 16.21 16853 - Normal
04/29/2026 06 PM PDT 16.19 16812 - Normal
04/29/2026 07 PM PDT 16.16 16750 - Normal
04/29/2026 08 PM PDT 16.14 16709 - Normal
04/29/2026 09 PM PDT 16.13 16689 - Normal
04/29/2026 10 PM PDT 16.10 16627 - Normal
04/29/2026 11 PM PDT 16.09 16607 - Normal
04/30/2026 12 AM PDT 16.06 16545 - Normal
04/30/2026 01 AM PDT 16.04 16504 - Normal
04/30/2026 02 AM PDT 16.02 16464 - Normal
04/30/2026 03 AM PDT 16.00 16423 - Normal
04/30/2026 04 AM PDT 15.98 16382 - Normal
04/30/2026 05 AM PDT 15.96 16341 - Normal
04/30/2026 06 AM PDT 15.94 16300 - Normal
04/30/2026 07 AM PDT 15.92 16260 - Normal
04/30/2026 08 AM PDT 15.92 16260 0 Normal
04/30/2026 09 AM PDT 15.92 16260 0 Normal
04/30/2026 10 AM PDT 15.93 16280 + Normal
04/30/2026 11 AM PDT 15.92 16260 - Normal
04/30/2026 12 PM PDT 15.91 16239 - Normal
04/30/2026 01 PM PDT 15.89 16199 - Normal
04/30/2026 02 PM PDT 15.87 16158 - Normal
04/30/2026 03 PM PDT 15.85 16117 - Normal
04/30/2026 04 PM PDT 15.80 16016 - Normal
04/30/2026 05 PM PDT 15.75 15915 - Normal
04/30/2026 06 PM PDT 15.72 15854 - Normal
04/30/2026 07 PM PDT 15.67 15753 - Normal
04/30/2026 08 PM PDT 15.63 15673 - Normal
04/30/2026 09 PM PDT 15.61 15632 - Normal
04/30/2026 10 PM PDT 15.59 15592 - Normal
04/30/2026 11 PM PDT 15.56 15532 - Normal
05/01/2026 12 AM PDT 15.54 15492 - Normal
05/01/2026 01 AM PDT 15.51 15432 - Normal
05/01/2026 02 AM PDT 15.49 15391 - Normal
05/01/2026 03 AM PDT 15.45 15311 - Normal
05/01/2026 04 AM PDT 15.42 15251 - Normal
05/01/2026 05 AM PDT 15.40 15212 - Normal
05/01/2026 06 AM PDT 15.38 15172 - Normal
05/01/2026 07 AM PDT 15.37 15152 - Normal
05/01/2026 08 AM PDT 15.37 15152 0 Normal
05/01/2026 09 AM PDT 15.37 15152 0 Normal
05/01/2026 10 AM PDT 15.35 15112 - Normal
05/01/2026 11 AM PDT 15.37 15152 + Normal
05/01/2026 12 PM PDT 15.34 15092 - Normal
05/01/2026 01 PM PDT 15.34 15092 0 Normal
05/01/2026 02 PM PDT 15.32 15052 - Normal
05/01/2026 03 PM PDT 15.29 14992 - Normal
05/01/2026 04 PM PDT 15.24 14893 - Normal
05/01/2026 05 PM PDT 15.21 14834 - Normal
05/01/2026 06 PM PDT 15.16 14735 - Normal
05/01/2026 07 PM PDT 15.13 14676 - Normal
05/01/2026 08 PM PDT 15.09 14597 - Normal
05/01/2026 09 PM PDT 15.06 14538 - Normal
05/01/2026 10 PM PDT 15.03 14478 - Normal
05/01/2026 11 PM PDT 15.02 14459 - Normal
05/02/2026 12 AM PDT 14.99 14400 - Normal
05/02/2026 01 AM PDT 14.96 14341 - Normal
05/02/2026 02 AM PDT 14.95 14321 - Normal
05/02/2026 03 AM PDT 14.92 14263 - Normal
05/02/2026 04 AM PDT 14.90 14223 - Normal
05/02/2026 05 AM PDT 14.87 14165 - Normal
05/02/2026 06 AM PDT 14.85 14126 - Normal
05/02/2026 07 AM PDT 14.82 14067 - Normal
05/02/2026 08 AM PDT 14.80 14028 - Normal
#
# FORECAST
#
# Date & Time (Local) Stage (Feet) Flow (cfs) Trend Forecast Status
# ---------------------------------------------------------------------------------
05/02/2026 09 AM PDT 14.78 13989 Normal
05/02/2026 10 AM PDT 14.76 13950 - Normal
05/02/2026 11 AM PDT 14.73 13892 - Normal
05/02/2026 12 PM PDT 14.71 13853 - Normal
05/02/2026 01 PM PDT 14.69 13814 - Normal
05/02/2026 02 PM PDT 14.66 13756 - Normal
05/02/2026 03 PM PDT 14.64 13718 - Normal
05/02/2026 04 PM PDT 14.61 13660 - Normal
05/02/2026 05 PM PDT 14.59 13621 - Normal
05/02/2026 06 PM PDT 14.56 13563 - Normal
05/02/2026 07 PM PDT 14.53 13505 - Normal
05/02/2026 08 PM PDT 14.50 13447 - Normal
05/02/2026 09 PM PDT 14.48 13409 - Normal
05/02/2026 10 PM PDT 14.45 13351 - Normal
05/02/2026 11 PM PDT 14.43 13313 - Normal
05/03/2026 12 AM PDT 14.40 13255 - Normal
05/03/2026 01 AM PDT 14.38 13217 - Normal
05/03/2026 02 AM PDT 14.35 13160 - Normal
05/03/2026 03 AM PDT 14.33 13121 - Normal
05/03/2026 04 AM PDT 14.30 13064 - Normal
05/03/2026 05 AM PDT 14.28 13026 - Normal
05/03/2026 06 AM PDT 14.26 12988 - Normal
05/03/2026 07 AM PDT 14.24 12950 - Normal
05/03/2026 08 AM PDT 14.21 12893 - Normal
05/03/2026 09 AM PDT 14.19 12855 - Normal
05/03/2026 10 AM PDT 14.17 12817 - Normal
05/03/2026 11 AM PDT 14.15 12779 - Normal
05/03/2026 12 PM PDT 14.13 12741 - Normal
05/03/2026 01 PM PDT 14.11 12703 - Normal
05/03/2026 02 PM PDT 14.09 12665 - Normal
05/03/2026 03 PM PDT 14.07 12628 - Normal
05/03/2026 04 PM PDT 14.05 12590 - Normal
05/03/2026 05 PM PDT 14.03 12552 - Normal
05/03/2026 06 PM PDT 14.01 12514 - Normal
05/03/2026 07 PM PDT 13.99 12477 - Normal
05/03/2026 08 PM PDT 13.97 12439 - Normal
05/03/2026 09 PM PDT 13.96 12420 - Normal
05/03/2026 10 PM PDT 13.94 12383 - Normal
05/03/2026 11 PM PDT 13.92 12345 - Normal
05/04/2026 12 AM PDT 13.90 12308 - Normal
05/04/2026 01 AM PDT 13.89 12289 - Normal
05/04/2026 02 AM PDT 13.87 12252 - Normal
05/04/2026 03 AM PDT 13.86 12233 - Normal
05/04/2026 04 AM PDT 13.84 12195 - Normal
05/04/2026 05 AM PDT 13.83 12177 - Normal
05/04/2026 06 AM PDT 13.81 12139 - Normal
05/04/2026 07 AM PDT 13.80 12121 - Normal
05/04/2026 08 AM PDT 13.78 12083 - Normal
05/04/2026 09 AM PDT 13.77 12065 - Normal
05/04/2026 10 AM PDT 13.75 12028 - Normal
05/04/2026 11 AM PDT 13.73 11990 - Normal
05/04/2026 12 PM PDT 13.72 11972 - Normal
05/04/2026 01 PM PDT 13.70 11935 - Normal
05/04/2026 02 PM PDT 13.69 11916 - Normal
05/04/2026 03 PM PDT 13.67 11879 - Normal
05/04/2026 04 PM PDT 13.66 11860 - Normal
05/04/2026 05 PM PDT 13.64 11823 - Normal
05/04/2026 06 PM PDT 13.63 11805 - Normal
05/04/2026 07 PM PDT 13.61 11768 - Normal
05/04/2026 08 PM PDT 13.60 11749 - Normal
05/04/2026 09 PM PDT 13.59 11731 - Normal
05/04/2026 10 PM PDT 13.58 11712 - Normal
05/04/2026 11 PM PDT 13.57 11694 - Normal
05/05/2026 12 AM PDT 13.57 11694 0 Normal
05/05/2026 01 AM PDT 13.56 11675 - Normal
05/05/2026 02 AM PDT 13.56 11675 0 Normal
05/05/2026 03 AM PDT 13.56 11675 0 Normal
05/05/2026 04 AM PDT 13.56 11675 0 Normal
05/05/2026 05 AM PDT 13.55 11657 - Normal
05/05/2026 06 AM PDT 13.55 11657 0 Normal
05/05/2026 07 AM PDT 13.55 11657 0 Normal
05/05/2026 08 AM PDT 13.54 11639 - Normal
05/05/2026 09 AM PDT 13.54 11639 0 Normal
05/05/2026 10 AM PDT 13.54 11639 0 Normal
05/05/2026 11 AM PDT 13.54 11639 0 Normal
05/05/2026 12 PM PDT 13.53 11620 - Normal
05/05/2026 01 PM PDT 13.53 11620 0 Normal
05/05/2026 02 PM PDT 13.53 11620 0 Normal
05/05/2026 03 PM PDT 13.52 11602 - Normal
05/05/2026 04 PM PDT 13.52 11602 0 Normal
05/05/2026 05 PM PDT 13.52 11602 0 Normal
05/05/2026 06 PM PDT 13.51 11583 - Normal
05/05/2026 07 PM PDT 13.51 11583 0 Normal
05/05/2026 08 PM PDT 13.51 11583 0 Normal
05/05/2026 09 PM PDT 13.51 11583 0 Normal
05/05/2026 10 PM PDT 13.51 11583 0 Normal
05/05/2026 11 PM PDT 13.51 11583 0 Normal
05/06/2026 12 AM PDT 13.51 11583 0 Normal
05/06/2026 01 AM PDT 13.51 11583 0 Normal
05/06/2026 02 AM PDT 13.51 11583 0 Normal
05/06/2026 03 AM PDT 13.51 11583 0 Normal
05/06/2026 04 AM PDT 13.51 11583 0 Normal
05/06/2026 05 AM PDT 13.51 11583 0 Normal
05/06/2026 06 AM PDT 13.51 11583 0 Normal
05/06/2026 07 AM PDT 13.50 11565 - Normal
05/06/2026 08 AM PDT 13.50 11565 0 Normal
05/06/2026 09 AM PDT 13.49 11546 - Normal
05/06/2026 10 AM PDT 13.49 11546 0 Normal
05/06/2026 11 AM PDT 13.48 11528 - Normal
05/06/2026 12 PM PDT 13.48 11528 0 Normal
05/06/2026 01 PM PDT 13.47 11510 - Normal
05/06/2026 02 PM PDT 13.47 11510 0 Normal
05/06/2026 03 PM PDT 13.47 11510 0 Normal
05/06/2026 04 PM PDT 13.46 11491 - Normal
05/06/2026 05 PM PDT 13.46 11491 0 Normal
05/06/2026 06 PM PDT 13.46 11491 0 Normal
05/06/2026 07 PM PDT 13.46 11491 0 Normal
05/06/2026 08 PM PDT 13.46 11491 0 Normal
05/06/2026 09 PM PDT 13.46 11491 0 Normal
05/06/2026 10 PM PDT 13.46 11491 0 Normal
05/06/2026 11 PM PDT 13.46 11491 0 Normal
05/07/2026 12 AM PDT 13.46 11491 0 Normal
05/07/2026 01 AM PDT 13.47 11510 + Normal
05/07/2026 02 AM PDT 13.47 11510 0 Normal
05/07/2026 03 AM PDT 13.47 11510 0 Normal
05/07/2026 04 AM PDT 13.47 11510 0 Normal
05/07/2026 05 AM PDT 13.48 11528 + Normal
#
# NOTE 1: Stages are rounded to the nearest hundredth (.01) of a foot.
# NOTE 2: Flows are rounded to the nearest (1) cfs.
# NOTE 3: Trends are determined using hourly change in unrounded stage and flow.
# NOTE 4: Maximum Values are determined using unrounded stage and flow.
|